Terminal Aerodrome Forecast
Issued by NWS

Home | Current Version | Previous Version | Text Only | Print | Product List | Glossary On
Versions: 1 2 3 4 5 6 7 8 9 10 11 12 13
000
FTUS46 KOTX 281720
TAFCOE
TAF
KCOE 281720Z 2818/2918 20009KT P6SM FEW120 BKN250
     FM282300 23005KT P6SM FEW140 BKN200
     FM290500 09004KT P6SM FEW200
     FM291500 06009KT P6SM SCT130
      AMD LTD TO CLD VIS AND WIND=

USA.gov is the U.S. government's official web portal to all federal, state and local government web resources and services.